sensor_id;sensor_type;location;lat;lon;timestamp;P1;durP1;ratioP1;P2;durP2;ratioP2
74945;SDS011;63509;45.250;38.102;2023-03-01T00:01:02;10.10;;;5.60;;
74945;SDS011;63509;45.250;38.102;2023-03-01T00:03:41;10.15;;;5.32;;
74945;SDS011;63509;45.250;38.102;2023-03-01T00:06:07;11.55;;;5.95;;
74945;SDS011;63509;45.250;38.102;2023-03-01T00:08:34;11.25;;;6.15;;
74945;SDS011;63509;45.250;38.102;2023-03-01T00:11:01;10.50;;;5.60;;
74945;SDS011;63509;45.250;38.102;2023-03-01T00:13:42;10.73;;;5.90;;
74945;SDS011;63509;45.250;38.102;2023-03-01T00:16:12;10.30;;;6.03;;
74945;SDS011;63509;45.250;38.102;2023-03-01T00:18:40;13.75;;;7.65;;
74945;SDS011;63509;45.250;38.102;2023-03-01T00:21:06;12.68;;;6.80;;
74945;SDS011;63509;45.250;38.102;2023-03-01T00:23:33;14.45;;;7.65;;
74945;SDS011;63509;45.250;38.102;2023-03-01T00:26:00;15.85;;;8.43;;
74945;SDS011;63509;45.250;38.102;2023-03-01T00:28:26;14.60;;;7.90;;
74945;SDS011;63509;45.250;38.102;2023-03-01T00:30:52;16.27;;;8.00;;
74945;SDS011;63509;45.250;38.102;2023-03-01T00:33:18;15.40;;;8.10;;
74945;SDS011;63509;45.250;38.102;2023-03-01T00:35:44;15.38;;;8.43;;
74945;SDS011;63509;45.250;38.102;2023-03-01T00:38:11;12.73;;;7.53;;
74945;SDS011;63509;45.250;38.102;2023-03-01T00:40:37;15.13;;;7.88;;
74945;SDS011;63509;45.250;38.102;2023-03-01T00:43:03;13.13;;;7.32;;
74945;SDS011;63509;45.250;38.102;2023-03-01T00:45:29;13.48;;;7.78;;
74945;SDS011;63509;45.250;38.102;2023-03-01T00:47:57;16.00;;;8.40;;
74945;SDS011;63509;45.250;38.102;2023-03-01T00:50:23;13.02;;;7.68;;
74945;SDS011;63509;45.250;38.102;2023-03-01T00:52:54;14.50;;;8.15;;
74945;SDS011;63509;45.250;38.102;2023-03-01T00:55:21;15.60;;;8.27;;
74945;SDS011;63509;45.250;38.102;2023-03-01T00:57:47;14.02;;;8.20;;
74945;SDS011;63509;45.250;38.102;2023-03-01T01:00:14;15.07;;;8.43;;
74945;SDS011;63509;45.250;38.102;2023-03-01T01:02:40;16.08;;;8.45;;
74945;SDS011;63509;45.250;38.102;2023-03-01T01:05:06;18.27;;;8.90;;
74945;SDS011;63509;45.250;38.102;2023-03-01T01:07:33;18.95;;;8.43;;
74945;SDS011;63509;45.250;38.102;2023-03-01T01:09:59;16.83;;;8.20;;
74945;SDS011;63509;45.250;38.102;2023-03-01T01:12:25;17.70;;;8.88;;
74945;SDS011;63509;45.250;38.102;2023-03-01T01:14:51;14.98;;;8.23;;
74945;SDS011;63509;45.250;38.102;2023-03-01T01:17:17;17.80;;;9.15;;
74945;SDS011;63509;45.250;38.102;2023-03-01T01:19:43;18.23;;;9.82;;
74945;SDS011;63509;45.250;38.102;2023-03-01T01:22:09;20.02;;;9.43;;
74945;SDS011;63509;45.250;38.102;2023-03-01T01:24:35;15.73;;;7.93;;
74945;SDS011;63509;45.250;38.102;2023-03-01T01:27:01;15.32;;;9.20;;
74945;SDS011;63509;45.250;38.102;2023-03-01T01:29:27;19.00;;;9.70;;
74945;SDS011;63509;45.250;38.102;2023-03-01T01:31:53;22.17;;;9.57;;
74945;SDS011;63509;45.250;38.102;2023-03-01T01:34:20;26.50;;;10.52;;
74945;SDS011;63509;45.250;38.102;2023-03-01T01:36:47;18.42;;;9.30;;
74945;SDS011;63509;45.250;38.102;2023-03-01T01:39:15;16.95;;;8.98;;
74945;SDS011;63509;45.250;38.102;2023-03-01T01:41:41;22.13;;;9.80;;
74945;SDS011;63509;45.250;38.102;2023-03-01T01:44:21;25.58;;;9.43;;
74945;SDS011;63509;45.250;38.102;2023-03-01T01:54:50;21.45;;;9.48;;
74945;SDS011;63509;45.250;38.102;2023-03-01T01:57:31;14.65;;;8.23;;
74945;SDS011;63509;45.250;38.102;2023-03-01T02:00:19;16.10;;;7.80;;
74945;SDS011;63509;45.250;38.102;2023-03-01T02:02:47;19.50;;;8.93;;
74945;SDS011;63509;45.250;38.102;2023-03-01T02:08:01;20.70;;;9.27;;
74945;SDS011;63509;45.250;38.102;2023-03-01T02:10:27;19.38;;;8.95;;
74945;SDS011;63509;45.250;38.102;2023-03-01T02:12:54;15.27;;;8.68;;
74945;SDS011;63509;45.250;38.102;2023-03-01T02:15:22;18.45;;;8.15;;
74945;SDS011;63509;45.250;38.102;2023-03-01T02:17:49;19.38;;;9.15;;
74945;SDS011;63509;45.250;38.102;2023-03-01T02:20:22;17.58;;;9.35;;
74945;SDS011;63509;45.250;38.102;2023-03-01T02:22:49;17.67;;;9.43;;
74945;SDS011;63509;45.250;38.102;2023-03-01T02:30:26;15.32;;;8.30;;
74945;SDS011;63509;45.250;38.102;2023-03-01T02:32:54;27.13;;;9.77;;
74945;SDS011;63509;45.250;38.102;2023-03-01T02:35:29;17.52;;;9.40;;
74945;SDS011;63509;45.250;38.102;2023-03-01T02:37:58;17.00;;;9.95;;
74945;SDS011;63509;45.250;38.102;2023-03-01T02:40:26;22.60;;;9.45;;
74945;SDS011;63509;45.250;38.102;2023-03-01T02:42:54;22.63;;;10.32;;
74945;SDS011;63509;45.250;38.102;2023-03-01T02:45:22;24.85;;;10.45;;
74945;SDS011;63509;45.250;38.102;2023-03-01T02:47:49;27.20;;;9.63;;
74945;SDS011;63509;45.250;38.102;2023-03-01T02:50:22;33.80;;;11.18;;
74945;SDS011;63509;45.250;38.102;2023-03-01T02:53:13;29.33;;;9.95;;
74945;SDS011;63509;45.250;38.102;2023-03-01T02:55:45;18.05;;;8.73;;
74945;SDS011;63509;45.250;38.102;2023-03-01T02:58:12;18.75;;;9.10;;
74945;SDS011;63509;45.250;38.102;2023-03-01T03:00:39;22.30;;;10.23;;
74945;SDS011;63509;45.250;38.102;2023-03-01T03:03:15;20.80;;;9.27;;
74945;SDS011;63509;45.250;38.102;2023-03-01T03:05:43;24.52;;;10.18;;
74945;SDS011;63509;45.250;38.102;2023-03-01T03:08:09;23.60;;;10.30;;
74945;SDS011;63509;45.250;38.102;2023-03-01T03:10:37;21.95;;;8.93;;
74945;SDS011;63509;45.250;38.102;2023-03-01T03:13:06;23.42;;;9.93;;
74945;SDS011;63509;45.250;38.102;2023-03-01T03:15:36;19.10;;;9.55;;
74945;SDS011;63509;45.250;38.102;2023-03-01T03:18:04;21.77;;;9.32;;
74945;SDS011;63509;45.250;38.102;2023-03-01T03:20:32;29.58;;;10.25;;
74945;SDS011;63509;45.250;38.102;2023-03-01T03:22:58;20.40;;;9.45;;
74945;SDS011;63509;45.250;38.102;2023-03-01T03:25:25;17.80;;;8.98;;
74945;SDS011;63509;45.250;38.102;2023-03-01T03:27:53;23.92;;;11.15;;
74945;SDS011;63509;45.250;38.102;2023-03-01T03:30:29;25.52;;;8.38;;
74945;SDS011;63509;45.250;38.102;2023-03-01T03:32:57;20.17;;;9.38;;
74945;SDS011;63509;45.250;38.102;2023-03-01T03:35:25;20.25;;;8.98;;
74945;SDS011;63509;45.250;38.102;2023-03-01T03:37:56;22.30;;;9.27;;
74945;SDS011;63509;45.250;38.102;2023-03-01T03:40:37;18.98;;;8.48;;
74945;SDS011;63509;45.250;38.102;2023-03-01T03:43:06;17.15;;;8.95;;
74945;SDS011;63509;45.250;38.102;2023-03-01T03:45:34;23.02;;;7.93;;
74945;SDS011;63509;45.250;38.102;2023-03-01T03:48:01;16.00;;;7.88;;
74945;SDS011;63509;45.250;38.102;2023-03-01T03:50:30;15.05;;;8.23;;
74945;SDS011;63509;45.250;38.102;2023-03-01T03:52:56;16.10;;;8.20;;
74945;SDS011;63509;45.250;38.102;2023-03-01T03:55:22;19.90;;;7.68;;
74945;SDS011;63509;45.250;38.102;2023-03-01T03:57:48;19.50;;;8.02;;
74945;SDS011;63509;45.250;38.102;2023-03-01T04:00:20;18.15;;;8.13;;
74945;SDS011;63509;45.250;38.102;2023-03-01T04:02:49;13.15;;;7.18;;
74945;SDS011;63509;45.250;38.102;2023-03-01T04:05:17;15.43;;;8.15;;
74945;SDS011;63509;45.250;38.102;2023-03-01T04:07:45;16.48;;;8.05;;
74945;SDS011;63509;45.250;38.102;2023-03-01T04:10:15;19.35;;;8.35;;
74945;SDS011;63509;45.250;38.102;2023-03-01T04:12:43;15.10;;;8.60;;
74945;SDS011;63509;45.250;38.102;2023-03-01T04:15:10;17.83;;;8.65;;
74945;SDS011;63509;45.250;38.102;2023-03-01T04:17:43;20.05;;;8.55;;
74945;SDS011;63509;45.250;38.102;2023-03-01T04:20:12;23.10;;;8.82;;
74945;SDS011;63509;45.250;38.102;2023-03-01T04:22:52;52.78;;;20.98;;
74945;SDS011;63509;45.250;38.102;2023-03-01T04:25:52;27.17;;;10.18;;
74945;SDS011;63509;45.250;38.102;2023-03-01T04:28:25;20.85;;;9.05;;
74945;SDS011;63509;45.250;38.102;2023-03-01T04:30:54;24.85;;;9.60;;
74945;SDS011;63509;45.250;38.102;2023-03-01T04:33:21;20.58;;;8.65;;
74945;SDS011;63509;45.250;38.102;2023-03-01T04:35:48;15.68;;;7.93;;
74945;SDS011;63509;45.250;38.102;2023-03-01T04:38:17;17.08;;;8.70;;
74945;SDS011;63509;45.250;38.102;2023-03-01T04:40:44;14.05;;;7.35;;
74945;SDS011;63509;45.250;38.102;2023-03-01T04:43:11;17.73;;;9.02;;
74945;SDS011;63509;45.250;38.102;2023-03-01T04:45:40;15.25;;;7.80;;
74945;SDS011;63509;45.250;38.102;2023-03-01T04:48:06;18.75;;;8.63;;
74945;SDS011;63509;45.250;38.102;2023-03-01T04:50:32;17.92;;;9.25;;
74945;SDS011;63509;45.250;38.102;2023-03-01T04:52:58;15.93;;;7.95;;
74945;SDS011;63509;45.250;38.102;2023-03-01T04:55:25;16.65;;;8.13;;
74945;SDS011;63509;45.250;38.102;2023-03-01T04:57:52;18.13;;;7.90;;
74945;SDS011;63509;45.250;38.102;2023-03-01T05:00:19;22.85;;;8.07;;
74945;SDS011;63509;45.250;38.102;2023-03-01T05:05:19;18.52;;;8.38;;
74945;SDS011;63509;45.250;38.102;2023-03-01T05:07:46;22.45;;;8.27;;
74945;SDS011;63509;45.250;38.102;2023-03-01T05:10:13;19.63;;;8.20;;
74945;SDS011;63509;45.250;38.102;2023-03-01T05:12:38;23.90;;;10.07;;
74945;SDS011;63509;45.250;38.102;2023-03-01T05:15:05;23.65;;;10.40;;
74945;SDS011;63509;45.250;38.102;2023-03-01T05:17:32;20.02;;;10.05;;
74945;SDS011;63509;45.250;38.102;2023-03-01T05:19:59;16.02;;;8.45;;
74945;SDS011;63509;45.250;38.102;2023-03-01T05:22:26;17.42;;;7.22;;
74945;SDS011;63509;45.250;38.102;2023-03-01T05:24:52;17.20;;;7.93;;
74945;SDS011;63509;45.250;38.102;2023-03-01T05:27:19;13.93;;;8.02;;
74945;SDS011;63509;45.250;38.102;2023-03-01T05:29:47;16.33;;;8.50;;
74945;SDS011;63509;45.250;38.102;2023-03-01T05:32:13;14.40;;;7.60;;
74945;SDS011;63509;45.250;38.102;2023-03-01T05:34:41;15.65;;;8.38;;
74945;SDS011;63509;45.250;38.102;2023-03-01T05:37:07;14.20;;;6.50;;
74945;SDS011;63509;45.250;38.102;2023-03-01T05:39:34;12.20;;;7.22;;
74945;SDS011;63509;45.250;38.102;2023-03-01T05:42:00;13.88;;;6.63;;
74945;SDS011;63509;45.250;38.102;2023-03-01T05:44:27;20.02;;;7.20;;
74945;SDS011;63509;45.250;38.102;2023-03-01T05:46:54;11.68;;;6.63;;
74945;SDS011;63509;45.250;38.102;2023-03-01T05:49:21;16.15;;;8.15;;
74945;SDS011;63509;45.250;38.102;2023-03-01T05:51:50;23.00;;;6.88;;
74945;SDS011;63509;45.250;38.102;2023-03-01T05:54:18;16.80;;;6.55;;
74945;SDS011;63509;45.250;38.102;2023-03-01T05:56:45;11.50;;;5.97;;
74945;SDS011;63509;45.250;38.102;2023-03-01T05:59:12;10.57;;;6.05;;
74945;SDS011;63509;45.250;38.102;2023-03-01T06:01:39;14.88;;;6.38;;
74945;SDS011;63509;45.250;38.102;2023-03-01T06:04:05;10.18;;;5.82;;
74945;SDS011;63509;45.250;38.102;2023-03-01T06:06:34;11.93;;;6.78;;
74945;SDS011;63509;45.250;38.102;2023-03-01T06:09:05;10.98;;;5.55;;
74945;SDS011;63509;45.250;38.102;2023-03-01T06:11:34;12.82;;;5.63;;
74945;SDS011;63509;45.250;38.102;2023-03-01T06:14:02;10.68;;;5.57;;
74945;SDS011;63509;45.250;38.102;2023-03-01T06:16:28;10.57;;;5.32;;
74945;SDS011;63509;45.250;38.102;2023-03-01T06:18:54;8.30;;;4.50;;
74945;SDS011;63509;45.250;38.102;2023-03-01T06:21:21;14.30;;;6.15;;
74945;SDS011;63509;45.250;38.102;2023-03-01T06:23:47;13.27;;;5.80;;
74945;SDS011;63509;45.250;38.102;2023-03-01T06:26:13;14.60;;;5.47;;
74945;SDS011;63509;45.250;38.102;2023-03-01T06:28:39;9.40;;;5.07;;
74945;SDS011;63509;45.250;38.102;2023-03-01T06:31:05;11.50;;;5.40;;
74945;SDS011;63509;45.250;38.102;2023-03-01T06:33:34;9.43;;;4.60;;
74945;SDS011;63509;45.250;38.102;2023-03-01T06:36:01;12.23;;;5.82;;
74945;SDS011;63509;45.250;38.102;2023-03-01T06:38:27;10.82;;;5.78;;
74945;SDS011;63509;45.250;38.102;2023-03-01T06:40:53;10.43;;;5.93;;
74945;SDS011;63509;45.250;38.102;2023-03-01T06:43:22;10.45;;;5.53;;
74945;SDS011;63509;45.250;38.102;2023-03-01T06:45:48;10.98;;;5.55;;
74945;SDS011;63509;45.250;38.102;2023-03-01T06:48:15;12.68;;;4.90;;
74945;SDS011;63509;45.250;38.102;2023-03-01T06:50:40;10.40;;;5.40;;
74945;SDS011;63509;45.250;38.102;2023-03-01T06:53:07;13.82;;;5.05;;
74945;SDS011;63509;45.250;38.102;2023-03-01T06:55:32;14.25;;;5.30;;
74945;SDS011;63509;45.250;38.102;2023-03-01T06:57:59;10.45;;;4.53;;
74945;SDS011;63509;45.250;38.102;2023-03-01T07:00:26;9.95;;;4.75;;
74945;SDS011;63509;45.250;38.102;2023-03-01T07:02:54;16.95;;;6.32;;
74945;SDS011;63509;45.250;38.102;2023-03-01T07:05:20;11.23;;;5.13;;
74945;SDS011;63509;45.250;38.102;2023-03-01T07:07:46;11.95;;;5.13;;
74945;SDS011;63509;45.250;38.102;2023-03-01T07:10:12;11.68;;;5.38;;
74945;SDS011;63509;45.250;38.102;2023-03-01T07:12:38;9.52;;;4.88;;
74945;SDS011;63509;45.250;38.102;2023-03-01T07:15:04;11.43;;;5.50;;
74945;SDS011;63509;45.250;38.102;2023-03-01T07:17:31;8.30;;;4.63;;
74945;SDS011;63509;45.250;38.102;2023-03-01T07:19:57;11.27;;;5.00;;
74945;SDS011;63509;45.250;38.102;2023-03-01T07:22:23;12.60;;;5.07;;
74945;SDS011;63509;45.250;38.102;2023-03-01T07:24:48;7.88;;;3.60;;
74945;SDS011;63509;45.250;38.102;2023-03-01T07:27:14;9.10;;;4.15;;
74945;SDS011;63509;45.250;38.102;2023-03-01T07:29:40;10.30;;;4.90;;
74945;SDS011;63509;45.250;38.102;2023-03-01T07:32:07;24.65;;;4.90;;
74945;SDS011;63509;45.250;38.102;2023-03-01T07:34:34;10.73;;;3.92;;
74945;SDS011;63509;45.250;38.102;2023-03-01T07:37:00;9.13;;;4.47;;
74945;SDS011;63509;45.250;38.102;2023-03-01T07:39:25;9.30;;;4.22;;
74945;SDS011;63509;45.250;38.102;2023-03-01T07:41:52;12.75;;;4.60;;
74945;SDS011;63509;45.250;38.102;2023-03-01T07:46:46;7.78;;;3.55;;
74945;SDS011;63509;45.250;38.102;2023-03-01T07:49:13;8.82;;;4.05;;
74945;SDS011;63509;45.250;38.102;2023-03-01T07:51:39;9.63;;;4.30;;
74945;SDS011;63509;45.250;38.102;2023-03-01T07:54:05;9.73;;;4.20;;
74945;SDS011;63509;45.250;38.102;2023-03-01T07:56:31;12.48;;;4.65;;
74945;SDS011;63509;45.250;38.102;2023-03-01T07:58:58;7.50;;;4.28;;
74945;SDS011;63509;45.250;38.102;2023-03-01T08:01:25;8.15;;;3.95;;
74945;SDS011;63509;45.250;38.102;2023-03-01T08:03:51;11.95;;;4.47;;
74945;SDS011;63509;45.250;38.102;2023-03-01T08:06:17;14.35;;;4.88;;
74945;SDS011;63509;45.250;38.102;2023-03-01T08:08:43;9.82;;;4.95;;
74945;SDS011;63509;45.250;38.102;2023-03-01T08:11:10;8.85;;;5.10;;
74945;SDS011;63509;45.250;38.102;2023-03-01T08:13:38;13.10;;;6.18;;
74945;SDS011;63509;45.250;38.102;2023-03-01T08:16:05;10.73;;;5.03;;
74945;SDS011;63509;45.250;38.102;2023-03-01T08:18:32;13.43;;;5.75;;
74945;SDS011;63509;45.250;38.102;2023-03-01T08:21:03;10.95;;;5.20;;
74945;SDS011;63509;45.250;38.102;2023-03-01T08:23:30;11.52;;;6.07;;
74945;SDS011;63509;45.250;38.102;2023-03-01T08:26:02;10.95;;;5.63;;
74945;SDS011;63509;45.250;38.102;2023-03-01T08:28:39;9.02;;;4.78;;
74945;SDS011;63509;45.250;38.102;2023-03-01T08:31:20;11.50;;;5.90;;
74945;SDS011;63509;45.250;38.102;2023-03-01T08:33:48;11.75;;;5.60;;
74945;SDS011;63509;45.250;38.102;2023-03-01T08:36:22;13.60;;;5.55;;
74945;SDS011;63509;45.250;38.102;2023-03-01T08:38:49;17.95;;;5.80;;
74945;SDS011;63509;45.250;38.102;2023-03-01T08:41:16;13.23;;;5.88;;
74945;SDS011;63509;45.250;38.102;2023-03-01T08:43:42;11.45;;;5.30;;
74945;SDS011;63509;45.250;38.102;2023-03-01T08:46:08;14.38;;;6.30;;
74945;SDS011;63509;45.250;38.102;2023-03-01T08:48:34;10.57;;;5.18;;
74945;SDS011;63509;45.250;38.102;2023-03-01T08:51:34;17.13;;;5.45;;
74945;SDS011;63509;45.250;38.102;2023-03-01T08:53:54;10.85;;;5.10;;
74945;SDS011;63509;45.250;38.102;2023-03-01T08:56:20;11.93;;;5.35;;
74945;SDS011;63509;45.250;38.102;2023-03-01T08:58:47;12.07;;;6.35;;
74945;SDS011;63509;45.250;38.102;2023-03-01T09:01:14;12.45;;;5.50;;
74945;SDS011;63509;45.250;38.102;2023-03-01T09:03:42;17.20;;;5.25;;
74945;SDS011;63509;45.250;38.102;2023-03-01T09:06:08;13.85;;;6.45;;
74945;SDS011;63509;45.250;38.102;2023-03-01T09:08:38;12.45;;;6.18;;
74945;SDS011;63509;45.250;38.102;2023-03-01T09:11:07;14.20;;;6.20;;
74945;SDS011;63509;45.250;38.102;2023-03-01T09:13:34;14.07;;;6.70;;
74945;SDS011;63509;45.250;38.102;2023-03-01T09:16:02;13.02;;;6.05;;
74945;SDS011;63509;45.250;38.102;2023-03-01T09:18:30;12.50;;;6.18;;
74945;SDS011;63509;45.250;38.102;2023-03-01T09:21:18;14.13;;;6.75;;
74945;SDS011;63509;45.250;38.102;2023-03-01T09:23:44;16.48;;;7.00;;
74945;SDS011;63509;45.250;38.102;2023-03-01T09:26:12;21.33;;;7.47;;
74945;SDS011;63509;45.250;38.102;2023-03-01T09:28:42;15.30;;;6.82;;
74945;SDS011;63509;45.250;38.102;2023-03-01T09:31:09;14.45;;;6.55;;
74945;SDS011;63509;45.250;38.102;2023-03-01T09:33:38;16.48;;;6.18;;
74945;SDS011;63509;45.250;38.102;2023-03-01T09:36:06;12.30;;;6.47;;
74945;SDS011;63509;45.250;38.102;2023-03-01T09:38:42;14.63;;;6.68;;
74945;SDS011;63509;45.250;38.102;2023-03-01T09:49:12;21.05;;;8.00;;
74945;SDS011;63509;45.250;38.102;2023-03-01T09:51:43;17.45;;;8.70;;
74945;SDS011;63509;45.250;38.102;2023-03-01T09:54:23;19.17;;;8.95;;
74945;SDS011;63509;45.250;38.102;2023-03-01T09:57:13;18.33;;;8.82;;
74945;SDS011;63509;45.250;38.102;2023-03-01T10:11:22;22.52;;;8.93;;
74945;SDS011;63509;45.250;38.102;2023-03-01T10:19:23;16.95;;;8.88;;
74945;SDS011;63509;45.250;38.102;2023-03-01T10:21:53;19.17;;;9.27;;
74945;SDS011;63509;45.250;38.102;2023-03-01T10:24:22;18.42;;;9.18;;
74945;SDS011;63509;45.250;38.102;2023-03-01T10:26:52;16.17;;;8.73;;
74945;SDS011;63509;45.250;38.102;2023-03-01T10:29:37;14.88;;;8.48;;
74945;SDS011;63509;45.250;38.102;2023-03-01T10:32:11;18.48;;;8.63;;
74945;SDS011;63509;45.250;38.102;2023-03-01T10:34:37;17.15;;;8.02;;
74945;SDS011;63509;45.250;38.102;2023-03-01T10:39:55;21.90;;;8.18;;
74945;SDS011;63509;45.250;38.102;2023-03-01T10:42:34;17.98;;;9.70;;
74945;SDS011;63509;45.250;38.102;2023-03-01T10:45:48;19.52;;;9.60;;
74945;SDS011;63509;45.250;38.102;2023-03-01T10:50:40;20.45;;;8.82;;
74945;SDS011;63509;45.250;38.102;2023-03-01T10:53:31;17.52;;;8.90;;
74945;SDS011;63509;45.250;38.102;2023-03-01T10:56:10;11.30;;;6.75;;
74945;SDS011;63509;45.250;38.102;2023-03-01T10:58:39;17.55;;;8.90;;
74945;SDS011;63509;45.250;38.102;2023-03-01T11:01:35;18.10;;;7.90;;
74945;SDS011;63509;45.250;38.102;2023-03-01T11:04:09;17.17;;;9.40;;
74945;SDS011;63509;45.250;38.102;2023-03-01T11:06:39;15.50;;;8.27;;
74945;SDS011;63509;45.250;38.102;2023-03-01T11:09:18;18.08;;;8.70;;
74945;SDS011;63509;45.250;38.102;2023-03-01T11:11:51;17.35;;;8.80;;
74945;SDS011;63509;45.250;38.102;2023-03-01T11:14:23;27.42;;;12.90;;
74945;SDS011;63509;45.250;38.102;2023-03-01T11:17:04;20.17;;;10.98;;
74945;SDS011;63509;45.250;38.102;2023-03-01T11:19:37;16.80;;;9.27;;
74945;SDS011;63509;45.250;38.102;2023-03-01T11:22:13;15.50;;;8.30;;
74945;SDS011;63509;45.250;38.102;2023-03-01T11:27:34;13.73;;;7.45;;
74945;SDS011;63509;45.250;38.102;2023-03-01T11:30:05;12.30;;;6.90;;
74945;SDS011;63509;45.250;38.102;2023-03-01T11:32:50;14.65;;;7.93;;
74945;SDS011;63509;45.250;38.102;2023-03-01T11:35:30;16.35;;;8.55;;
74945;SDS011;63509;45.250;38.102;2023-03-01T11:38:03;16.17;;;8.38;;
74945;SDS011;63509;45.250;38.102;2023-03-01T11:40:37;17.70;;;8.50;;
74945;SDS011;63509;45.250;38.102;2023-03-01T11:43:20;21.42;;;10.25;;
74945;SDS011;63509;45.250;38.102;2023-03-01T11:49:19;22.08;;;8.02;;
74945;SDS011;63509;45.250;38.102;2023-03-01T11:56:50;12.43;;;7.15;;
74945;SDS011;63509;45.250;38.102;2023-03-01T12:11:01;17.20;;;9.45;;
74945;SDS011;63509;45.250;38.102;2023-03-01T12:13:47;16.33;;;9.93;;
74945;SDS011;63509;45.250;38.102;2023-03-01T12:16:40;16.92;;;9.13;;
74945;SDS011;63509;45.250;38.102;2023-03-01T12:19:44;22.75;;;12.52;;
74945;SDS011;63509;45.250;38.102;2023-03-01T12:30:54;14.60;;;9.25;;
74945;SDS011;63509;45.250;38.102;2023-03-01T12:33:50;20.73;;;10.30;;
74945;SDS011;63509;45.250;38.102;2023-03-01T12:36:36;22.83;;;10.52;;
74945;SDS011;63509;45.250;38.102;2023-03-01T12:41:44;17.65;;;8.20;;
74945;SDS011;63509;45.250;38.102;2023-03-01T12:49:31;14.52;;;8.25;;
74945;SDS011;63509;45.250;38.102;2023-03-01T12:54:43;13.82;;;7.78;;
74945;SDS011;63509;45.250;38.102;2023-03-01T12:57:16;14.95;;;9.10;;
74945;SDS011;63509;45.250;38.102;2023-03-01T13:08:48;15.82;;;7.88;;
74945;SDS011;63509;45.250;38.102;2023-03-01T13:11:41;13.55;;;7.60;;
74945;SDS011;63509;45.250;38.102;2023-03-01T13:16:47;20.60;;;8.25;;
74945;SDS011;63509;45.250;38.102;2023-03-01T13:21:47;14.52;;;7.47;;
74945;SDS011;63509;45.250;38.102;2023-03-01T13:29:47;14.40;;;7.80;;
74945;SDS011;63509;45.250;38.102;2023-03-01T13:32:31;17.23;;;8.82;;
74945;SDS011;63509;45.250;38.102;2023-03-01T13:37:44;13.77;;;7.53;;
74945;SDS011;63509;45.250;38.102;2023-03-01T13:42:48;14.60;;;8.38;;
74945;SDS011;63509;45.250;38.102;2023-03-01T13:45:22;12.18;;;7.10;;
74945;SDS011;63509;45.250;38.102;2023-03-01T13:48:43;11.35;;;6.45;;
74945;SDS011;63509;45.250;38.102;2023-03-01T13:50:57;12.85;;;6.90;;
74945;SDS011;63509;45.250;38.102;2023-03-01T13:53:26;13.85;;;6.63;;
74945;SDS011;63509;45.250;38.102;2023-03-01T13:59:15;11.98;;;5.85;;
74945;SDS011;63509;45.250;38.102;2023-03-01T14:01:43;11.93;;;6.50;;
74945;SDS011;63509;45.250;38.102;2023-03-01T14:07:19;15.60;;;5.53;;
74945;SDS011;63509;45.250;38.102;2023-03-01T14:09:56;12.10;;;5.55;;
74945;SDS011;63509;45.250;38.102;2023-03-01T14:12:41;10.20;;;4.50;;
74945;SDS011;63509;45.250;38.102;2023-03-01T14:15:32;8.50;;;4.57;;
74945;SDS011;63509;45.250;38.102;2023-03-01T14:20:43;8.50;;;4.50;;
74945;SDS011;63509;45.250;38.102;2023-03-01T14:23:23;10.05;;;4.95;;
74945;SDS011;63509;45.250;38.102;2023-03-01T14:25:50;9.20;;;4.90;;
74945;SDS011;63509;45.250;38.102;2023-03-01T14:28:21;16.38;;;6.05;;
74945;SDS011;63509;45.250;38.102;2023-03-01T14:30:52;11.82;;;6.78;;
74945;SDS011;63509;45.250;38.102;2023-03-01T14:33:28;14.95;;;6.43;;
74945;SDS011;63509;45.250;38.102;2023-03-01T14:36:00;9.95;;;5.57;;
74945;SDS011;63509;45.250;38.102;2023-03-01T14:38:49;11.82;;;5.20;;
74945;SDS011;63509;45.250;38.102;2023-03-01T14:41:15;14.68;;;5.70;;
74945;SDS011;63509;45.250;38.102;2023-03-01T14:43:46;9.88;;;5.75;;
74945;SDS011;63509;45.250;38.102;2023-03-01T14:46:19;9.02;;;4.55;;
74945;SDS011;63509;45.250;38.102;2023-03-01T14:49:06;11.20;;;6.05;;
74945;SDS011;63509;45.250;38.102;2023-03-01T14:51:38;13.13;;;5.38;;
74945;SDS011;63509;45.250;38.102;2023-03-01T14:56:52;9.85;;;5.00;;
74945;SDS011;63509;45.250;38.102;2023-03-01T14:59:23;14.27;;;5.35;;
74945;SDS011;63509;45.250;38.102;2023-03-01T15:01:50;11.45;;;4.97;;
74945;SDS011;63509;45.250;38.102;2023-03-01T15:06:45;14.68;;;4.35;;
74945;SDS011;63509;45.250;38.102;2023-03-01T15:09:16;14.10;;;5.00;;
74945;SDS011;63509;45.250;38.102;2023-03-01T15:11:43;9.50;;;5.25;;
74945;SDS011;63509;45.250;38.102;2023-03-01T15:17:13;11.77;;;5.95;;
74945;SDS011;63509;45.250;38.102;2023-03-01T15:20:02;11.55;;;5.95;;
74945;SDS011;63509;45.250;38.102;2023-03-01T15:22:30;10.93;;;6.00;;
74945;SDS011;63509;45.250;38.102;2023-03-01T15:24:56;13.27;;;5.45;;
74945;SDS011;63509;45.250;38.102;2023-03-01T15:27:24;13.48;;;6.05;;
74945;SDS011;63509;45.250;38.102;2023-03-01T15:29:52;14.50;;;5.22;;
74945;SDS011;63509;45.250;38.102;2023-03-01T15:32:28;9.35;;;5.43;;
74945;SDS011;63509;45.250;38.102;2023-03-01T15:34:59;13.95;;;5.57;;
74945;SDS011;63509;45.250;38.102;2023-03-01T15:37:47;15.38;;;6.85;;
74945;SDS011;63509;45.250;38.102;2023-03-01T15:40:18;10.30;;;5.93;;
74945;SDS011;63509;45.250;38.102;2023-03-01T15:47:48;17.67;;;8.05;;
74945;SDS011;63509;45.250;38.102;2023-03-01T15:50:24;22.33;;;9.23;;
74945;SDS011;63509;45.250;38.102;2023-03-01T15:52:53;19.30;;;9.00;;
74945;SDS011;63509;45.250;38.102;2023-03-01T15:55:29;29.23;;;13.20;;
74945;SDS011;63509;45.250;38.102;2023-03-01T16:00:28;21.40;;;10.13;;
74945;SDS011;63509;45.250;38.102;2023-03-01T16:02:54;15.63;;;7.35;;
74945;SDS011;63509;45.250;38.102;2023-03-01T16:05:23;23.33;;;7.72;;
74945;SDS011;63509;45.250;38.102;2023-03-01T16:07:57;21.10;;;7.15;;
74945;SDS011;63509;45.250;38.102;2023-03-01T16:10:27;13.38;;;6.30;;
74945;SDS011;63509;45.250;38.102;2023-03-01T16:12:54;12.68;;;5.95;;
74945;SDS011;63509;45.250;38.102;2023-03-01T16:15:27;11.73;;;6.18;;
74945;SDS011;63509;45.250;38.102;2023-03-01T16:17:58;15.60;;;5.97;;
74945;SDS011;63509;45.250;38.102;2023-03-01T16:20:24;15.07;;;6.45;;
74945;SDS011;63509;45.250;38.102;2023-03-01T16:22:50;10.85;;;5.28;;
74945;SDS011;63509;45.250;38.102;2023-03-01T16:25:17;12.13;;;5.53;;
74945;SDS011;63509;45.250;38.102;2023-03-01T16:27:45;11.95;;;5.75;;
74945;SDS011;63509;45.250;38.102;2023-03-01T16:30:14;11.85;;;5.82;;
74945;SDS011;63509;45.250;38.102;2023-03-01T16:32:42;14.07;;;6.07;;
74945;SDS011;63509;45.250;38.102;2023-03-01T16:35:10;16.10;;;7.90;;
74945;SDS011;63509;45.250;38.102;2023-03-01T16:37:38;15.93;;;7.47;;
74945;SDS011;63509;45.250;38.102;2023-03-01T16:40:04;14.40;;;6.95;;
74945;SDS011;63509;45.250;38.102;2023-03-01T16:42:36;14.30;;;6.70;;
74945;SDS011;63509;45.250;38.102;2023-03-01T16:45:06;22.10;;;7.60;;
74945;SDS011;63509;45.250;38.102;2023-03-01T16:47:33;13.13;;;6.97;;
74945;SDS011;63509;45.250;38.102;2023-03-01T16:49:59;14.38;;;5.90;;
74945;SDS011;63509;45.250;38.102;2023-03-01T16:52:25;14.00;;;6.43;;
74945;SDS011;63509;45.250;38.102;2023-03-01T16:54:51;12.23;;;7.13;;
74945;SDS011;63509;45.250;38.102;2023-03-01T16:57:17;19.95;;;7.32;;
74945;SDS011;63509;45.250;38.102;2023-03-01T16:59:43;26.65;;;7.30;;
74945;SDS011;63509;45.250;38.102;2023-03-01T17:02:11;19.05;;;7.75;;